Terminal Aerodrome Forecast
Issued by NWS Charleston, WV

Current Version | Previous Version | Graphics & Text | Print | Product List | Glossary On
Versions: 1 2 3 4 5 6 7 8 9 10 11 12 13 14 15 16 17 18 19 20 21 22 23
522
FTUS41 KRLX 211139
TAFHTS
TAF
KHTS 211139Z 2112/2212 34004KT 3SM BR SCT005 OVC010
      TEMPO 2112/2114 2SM BR OVC005
     FM211400 36005KT P6SM OVC010
     FM211600 36006KT P6SM BKN030
     FM211700 35005KT P6SM BKN070=

USA.gov is the U.S. government's official web portal to all federal, state and local government web resources and services.